sensor_id;sensor_type;location;lat;lon;timestamp;pressure;altitude;pressure_sealevel;temperature;humidity
37892;BME280;45797;47.466;9.486;2023-03-03T00:00:21;95949.94;;;4.84;64.47
37892;BME280;45797;47.466;9.486;2023-03-03T00:05:38;95949.47;;;4.76;64.44
37892;BME280;45797;47.466;9.486;2023-03-03T00:10:40;95950.16;;;4.79;64.46
37892;BME280;45797;47.466;9.486;2023-03-03T00:15:43;95951.22;;;4.75;64.47
37892;BME280;45797;47.466;9.486;2023-03-03T00:20:58;95947.16;;;4.70;64.04
37892;BME280;45797;47.466;9.486;2023-03-03T00:26:28;95943.88;;;4.66;64.45
37892;BME280;45797;47.466;9.486;2023-03-03T00:31:39;95945.47;;;4.69;64.56
37892;BME280;45797;47.466;9.486;2023-03-03T00:36:53;95942.78;;;4.70;64.20
37892;BME280;45797;47.466;9.486;2023-03-03T00:41:54;95935.94;;;4.69;64.24
37892;BME280;45797;47.466;9.486;2023-03-03T00:46:55;95938.59;;;4.68;64.45
37892;BME280;45797;47.466;9.486;2023-03-03T00:51:55;95938.75;;;4.65;63.81
37892;BME280;45797;47.466;9.486;2023-03-03T00:56:56;95942.22;;;4.64;64.38
37892;BME280;45797;47.466;9.486;2023-03-03T01:01:57;95937.03;;;4.64;64.08
37892;BME280;45797;47.466;9.486;2023-03-03T01:06:59;95946.38;;;4.68;64.40
37892;BME280;45797;47.466;9.486;2023-03-03T01:12:00;95942.72;;;4.72;64.29
37892;BME280;45797;47.466;9.486;2023-03-03T01:17:00;95936.50;;;4.76;64.49
37892;BME280;45797;47.466;9.486;2023-03-03T01:22:01;95947.47;;;4.81;64.13
37892;BME280;45797;47.466;9.486;2023-03-03T01:27:01;95931.63;;;4.87;64.17
37892;BME280;45797;47.466;9.486;2023-03-03T01:32:06;95934.72;;;4.95;63.58
37892;BME280;45797;47.466;9.486;2023-03-03T01:37:15;95931.97;;;4.98;64.18
37892;BME280;45797;47.466;9.486;2023-03-03T01:42:15;95929.16;;;5.03;63.74
37892;BME280;45797;47.466;9.486;2023-03-03T01:47:27;95934.03;;;5.09;63.84
37892;BME280;45797;47.466;9.486;2023-03-03T01:52:35;95933.50;;;5.20;63.85
37892;BME280;45797;47.466;9.486;2023-03-03T01:57:41;95937.50;;;5.27;63.39
37892;BME280;45797;47.466;9.486;2023-03-03T02:02:44;95927.78;;;5.30;63.50
37892;BME280;45797;47.466;9.486;2023-03-03T02:07:53;95931.78;;;5.37;63.24
37892;BME280;45797;47.466;9.486;2023-03-03T02:13:02;95928.19;;;5.40;63.36
37892;BME280;45797;47.466;9.486;2023-03-03T02:18:08;95922.69;;;5.46;63.63
37892;BME280;45797;47.466;9.486;2023-03-03T02:23:20;95924.22;;;5.50;63.33
37892;BME280;45797;47.466;9.486;2023-03-03T02:28:43;95921.84;;;5.45;63.48
37892;BME280;45797;47.466;9.486;2023-03-03T02:33:50;95920.72;;;5.51;63.65
37892;BME280;45797;47.466;9.486;2023-03-03T02:39:05;95917.28;;;5.51;63.65
37892;BME280;45797;47.466;9.486;2023-03-03T02:44:13;95910.09;;;5.56;63.68
37892;BME280;45797;47.466;9.486;2023-03-03T02:49:19;95920.72;;;5.51;63.72
37892;BME280;45797;47.466;9.486;2023-03-03T02:54:22;95923.91;;;5.56;63.77
37892;BME280;45797;47.466;9.486;2023-03-03T02:59:29;95922.06;;;5.58;63.44
37892;BME280;45797;47.466;9.486;2023-03-03T03:04:33;95919.16;;;5.64;63.33
37892;BME280;45797;47.466;9.486;2023-03-03T03:09:36;95916.41;;;5.67;63.68
37892;BME280;45797;47.466;9.486;2023-03-03T03:14:40;95913.75;;;5.69;63.79
37892;BME280;45797;47.466;9.486;2023-03-03T03:19:58;95906.09;;;5.66;63.54
37892;BME280;45797;47.466;9.486;2023-03-03T03:25:01;95904.13;;;5.71;63.71
37892;BME280;45797;47.466;9.486;2023-03-03T03:30:03;95899.75;;;5.71;63.70
37892;BME280;45797;47.466;9.486;2023-03-03T03:35:05;95900.69;;;5.70;63.52
37892;BME280;45797;47.466;9.486;2023-03-03T03:40:06;95895.41;;;5.72;63.48
37892;BME280;45797;47.466;9.486;2023-03-03T03:45:07;95902.34;;;5.71;63.68
37892;BME280;45797;47.466;9.486;2023-03-03T03:50:08;95904.34;;;5.66;63.50
37892;BME280;45797;47.466;9.486;2023-03-03T03:55:13;95897.81;;;5.59;64.07
37892;BME280;45797;47.466;9.486;2023-03-03T04:00:15;95899.84;;;5.53;63.88
37892;BME280;45797;47.466;9.486;2023-03-03T04:05:27;95898.09;;;5.53;63.58
37892;BME280;45797;47.466;9.486;2023-03-03T04:10:29;95896.56;;;5.49;63.62
37892;BME280;45797;47.466;9.486;2023-03-03T04:15:43;95900.16;;;5.47;63.43
37892;BME280;45797;47.466;9.486;2023-03-03T04:20:48;95899.22;;;5.48;64.22
37892;BME280;45797;47.466;9.486;2023-03-03T04:25:49;95903.75;;;5.44;63.68
37892;BME280;45797;47.466;9.486;2023-03-03T04:30:52;95914.16;;;5.44;64.04
37892;BME280;45797;47.466;9.486;2023-03-03T04:35:54;95912.53;;;5.41;64.54
37892;BME280;45797;47.466;9.486;2023-03-03T04:40:55;95913.50;;;5.39;64.25
37892;BME280;45797;47.466;9.486;2023-03-03T04:46:07;95916.44;;;5.33;63.88
37892;BME280;45797;47.466;9.486;2023-03-03T04:51:10;95908.78;;;5.30;64.31
37892;BME280;45797;47.466;9.486;2023-03-03T04:56:12;95905.59;;;5.25;64.30
37892;BME280;45797;47.466;9.486;2023-03-03T05:01:19;95916.25;;;5.19;64.04
37892;BME280;45797;47.466;9.486;2023-03-03T05:06:20;95904.13;;;5.19;64.46
37892;BME280;45797;47.466;9.486;2023-03-03T05:11:28;95915.50;;;5.16;64.13
37892;BME280;45797;47.466;9.486;2023-03-03T05:16:48;95922.59;;;5.13;63.84
37892;BME280;45797;47.466;9.486;2023-03-03T05:21:49;95930.91;;;5.20;64.45
37892;BME280;45797;47.466;9.486;2023-03-03T05:26:50;95924.81;;;5.21;64.19
37892;BME280;45797;47.466;9.486;2023-03-03T05:31:51;95931.63;;;5.23;64.22
37892;BME280;45797;47.466;9.486;2023-03-03T05:36:53;95933.47;;;5.21;64.32
37892;BME280;45797;47.466;9.486;2023-03-03T05:42:03;95933.50;;;5.20;64.21
37892;BME280;45797;47.466;9.486;2023-03-03T05:47:03;95930.91;;;5.20;64.40
37892;BME280;45797;47.466;9.486;2023-03-03T05:52:04;95936.09;;;5.20;63.83
37892;BME280;45797;47.466;9.486;2023-03-03T05:57:10;95946.50;;;5.20;63.85
37892;BME280;45797;47.466;9.486;2023-03-03T06:02:10;95941.94;;;5.25;64.23
37892;BME280;45797;47.466;9.486;2023-03-03T06:07:22;95940.84;;;5.29;63.64
37892;BME280;45797;47.466;9.486;2023-03-03T06:12:30;95948.50;;;5.32;63.90
37892;BME280;45797;47.466;9.486;2023-03-03T06:17:39;95955.22;;;5.36;63.60
37892;BME280;45797;47.466;9.486;2023-03-03T06:22:39;95957.53;;;5.42;64.11
37892;BME280;45797;47.466;9.486;2023-03-03T06:27:40;95966.63;;;5.51;64.03
37892;BME280;45797;47.466;9.486;2023-03-03T06:32:41;95967.38;;;5.53;63.61
37892;BME280;45797;47.466;9.486;2023-03-03T06:37:43;95968.81;;;5.58;63.41
37892;BME280;45797;47.466;9.486;2023-03-03T06:42:49;95978.84;;;5.66;63.23
37892;BME280;45797;47.466;9.486;2023-03-03T06:47:52;95987.19;;;5.72;63.60
37892;BME280;45797;47.466;9.486;2023-03-03T06:53:03;95984.41;;;5.76;63.41
37892;BME280;45797;47.466;9.486;2023-03-03T06:58:27;95983.38;;;5.80;62.88
37892;BME280;45797;47.466;9.486;2023-03-03T07:03:33;95986.44;;;5.88;63.31
37892;BME280;45797;47.466;9.486;2023-03-03T07:08:33;95991.84;;;5.83;63.05
37892;BME280;45797;47.466;9.486;2023-03-03T07:13:43;95996.69;;;5.91;63.36
37892;BME280;45797;47.466;9.486;2023-03-03T07:19:30;96008.91;;;5.89;63.16
37892;BME280;45797;47.466;9.486;2023-03-03T07:24:35;96007.75;;;5.94;63.15
37892;BME280;45797;47.466;9.486;2023-03-03T07:29:37;96016.69;;;6.06;62.69
37892;BME280;45797;47.466;9.486;2023-03-03T07:34:45;96015.19;;;6.02;63.25
37892;BME280;45797;47.466;9.486;2023-03-03T07:39:49;96037.50;;;6.06;63.20
37892;BME280;45797;47.466;9.486;2023-03-03T07:44:57;96026.88;;;6.11;62.95
37892;BME280;45797;47.466;9.486;2023-03-03T07:50:15;96030.69;;;6.21;62.34
37892;BME280;45797;47.466;9.486;2023-03-03T07:55:43;96033.94;;;6.42;62.07
37892;BME280;45797;47.466;9.486;2023-03-03T08:01:20;96025.19;;;6.60;61.68
37892;BME280;45797;47.466;9.486;2023-03-03T08:11:54;96028.22;;;6.68;61.91
37892;BME280;45797;47.466;9.486;2023-03-03T08:16:57;96034.03;;;6.73;61.88
37892;BME280;45797;47.466;9.486;2023-03-03T08:22:16;96032.66;;;6.66;61.99
37892;BME280;45797;47.466;9.486;2023-03-03T08:27:20;96035.97;;;6.52;61.97
37892;BME280;45797;47.466;9.486;2023-03-03T08:32:20;96039.47;;;6.36;62.67
37892;BME280;45797;47.466;9.486;2023-03-03T08:37:22;96026.53;;;6.34;63.06
37892;BME280;45797;47.466;9.486;2023-03-03T08:42:30;96031.63;;;6.53;62.71
37892;BME280;45797;47.466;9.486;2023-03-03T08:47:30;96040.34;;;6.52;62.54
37892;BME280;45797;47.466;9.486;2023-03-03T08:52:32;96038.91;;;6.46;62.72
37892;BME280;45797;47.466;9.486;2023-03-03T08:57:35;96052.59;;;6.50;62.91
37892;BME280;45797;47.466;9.486;2023-03-03T09:02:35;96060.47;;;6.48;62.77
37892;BME280;45797;47.466;9.486;2023-03-03T09:07:37;96070.34;;;6.42;62.61
37892;BME280;45797;47.466;9.486;2023-03-03T09:12:46;96076.31;;;6.44;62.84
37892;BME280;45797;47.466;9.486;2023-03-03T09:17:47;96077.69;;;6.51;62.44
37892;BME280;45797;47.466;9.486;2023-03-03T09:34:42;96086.75;;;6.77;61.81
37892;BME280;45797;47.466;9.486;2023-03-03T09:39:45;96078.06;;;6.94;61.59
37892;BME280;45797;47.466;9.486;2023-03-03T10:01:02;96066.19;;;8.13;60.01
37892;BME280;45797;47.466;9.486;2023-03-03T10:11:31;96071.19;;;8.31;59.38
37892;BME280;45797;47.466;9.486;2023-03-03T10:27:50;96075.16;;;8.09;60.33
37892;BME280;45797;47.466;9.486;2023-03-03T10:33:15;96079.13;;;8.30;59.85
37892;BME280;45797;47.466;9.486;2023-03-03T10:44:12;96067.56;;;8.78;58.67
37892;BME280;45797;47.466;9.486;2023-03-03T10:49:53;96077.53;;;9.29;58.46
37892;BME280;45797;47.466;9.486;2023-03-03T11:01:07;96091.59;;;9.40;58.43
37892;BME280;45797;47.466;9.486;2023-03-03T11:06:33;96086.66;;;9.36;58.41
37892;BME280;45797;47.466;9.486;2023-03-03T11:34:11;96058.19;;;9.85;58.08
37892;BME280;45797;47.466;9.486;2023-03-03T11:39:21;96051.22;;;9.86;57.65
37892;BME280;45797;47.466;9.486;2023-03-03T11:50:04;96044.88;;;10.02;57.53
37892;BME280;45797;47.466;9.486;2023-03-03T11:55:37;96040.28;;;10.06;57.71
37892;BME280;45797;47.466;9.486;2023-03-03T12:01:00;96042.34;;;10.01;57.88
37892;BME280;45797;47.466;9.486;2023-03-03T12:16:43;96030.09;;;10.28;57.69
37892;BME280;45797;47.466;9.486;2023-03-03T12:28:12;96030.41;;;10.37;57.04
37892;BME280;45797;47.466;9.486;2023-03-03T12:33:28;96022.13;;;10.30;57.38
37892;BME280;45797;47.466;9.486;2023-03-03T13:16:03;96015.97;;;10.44;57.23
37892;BME280;45797;47.466;9.486;2023-03-03T13:26:49;96015.78;;;10.07;57.50
37892;BME280;45797;47.466;9.486;2023-03-03T13:32:02;96007.94;;;10.07;58.01
37892;BME280;45797;47.466;9.486;2023-03-03T13:37:20;96004.66;;;9.91;57.99
37892;BME280;45797;47.466;9.486;2023-03-03T13:42:38;96008.47;;;9.72;57.82
37892;BME280;45797;47.466;9.486;2023-03-03T13:47:47;96006.31;;;9.79;58.27
37892;BME280;45797;47.466;9.486;2023-03-03T14:04:04;95980.44;;;10.40;56.78
37892;BME280;45797;47.466;9.486;2023-03-03T14:09:08;95982.56;;;10.47;56.77
37892;BME280;45797;47.466;9.486;2023-03-03T14:14:44;95981.09;;;10.56;56.69
37892;BME280;45797;47.466;9.486;2023-03-03T14:19:59;95981.31;;;10.53;56.46
37892;BME280;45797;47.466;9.486;2023-03-03T14:25:06;95980.75;;;10.73;56.41
37892;BME280;45797;47.466;9.486;2023-03-03T14:46:30;95969.56;;;10.71;56.36
37892;BME280;45797;47.466;9.486;2023-03-03T14:51:47;95969.63;;;10.82;56.01
37892;BME280;45797;47.466;9.486;2023-03-03T15:07:32;95964.91;;;10.87;56.19
37892;BME280;45797;47.466;9.486;2023-03-03T15:12:37;95965.84;;;10.86;56.31
37892;BME280;45797;47.466;9.486;2023-03-03T15:18:08;95954.22;;;10.91;56.08
37892;BME280;45797;47.466;9.486;2023-03-03T15:34:47;95962.81;;;11.16;55.81
37892;BME280;45797;47.466;9.486;2023-03-03T15:40:26;95950.91;;;11.36;55.38
37892;BME280;45797;47.466;9.486;2023-03-03T15:57:03;95947.34;;;11.37;55.58
37892;BME280;45797;47.466;9.486;2023-03-03T16:07:45;95951.06;;;11.46;55.58
37892;BME280;45797;47.466;9.486;2023-03-03T16:23:50;95964.03;;;11.00;56.49
37892;BME280;45797;47.466;9.486;2023-03-03T16:29:37;95984.09;;;10.75;56.88
37892;BME280;45797;47.466;9.486;2023-03-03T16:40:14;95989.63;;;10.20;57.77
37892;BME280;45797;47.466;9.486;2023-03-03T16:51:09;96002.41;;;9.45;58.72
37892;BME280;45797;47.466;9.486;2023-03-03T16:56:18;96004.38;;;9.14;59.46
37892;BME280;45797;47.466;9.486;2023-03-03T17:01:41;96013.56;;;8.79;59.78
37892;BME280;45797;47.466;9.486;2023-03-03T17:06:58;96013.19;;;8.56;59.95
37892;BME280;45797;47.466;9.486;2023-03-03T17:17:30;96031.59;;;8.25;60.62
37892;BME280;45797;47.466;9.486;2023-03-03T17:28:31;96038.22;;;8.00;60.67
37892;BME280;45797;47.466;9.486;2023-03-03T17:34:09;96050.53;;;7.98;60.86
37892;BME280;45797;47.466;9.486;2023-03-03T17:39:47;96056.19;;;7.91;60.55
37892;BME280;45797;47.466;9.486;2023-03-03T18:06:26;96073.03;;;7.69;60.94
37892;BME280;45797;47.466;9.486;2023-03-03T18:12:14;96079.84;;;7.56;61.45
37892;BME280;45797;47.466;9.486;2023-03-03T18:22:42;96087.19;;;7.50;61.57
37892;BME280;45797;47.466;9.486;2023-03-03T18:33:08;96094.91;;;7.35;62.17
37892;BME280;45797;47.466;9.486;2023-03-03T18:38:23;96097.34;;;7.23;62.05
37892;BME280;45797;47.466;9.486;2023-03-03T18:48:48;96090.50;;;7.04;62.12
37892;BME280;45797;47.466;9.486;2023-03-03T18:59:51;96108.72;;;6.71;62.87
37892;BME280;45797;47.466;9.486;2023-03-03T19:20:42;96117.13;;;6.26;63.69
37892;BME280;45797;47.466;9.486;2023-03-03T19:25:44;96115.56;;;6.22;63.84
37892;BME280;45797;47.466;9.486;2023-03-03T19:31:01;96116.88;;;6.13;64.15
37892;BME280;45797;47.466;9.486;2023-03-03T19:52:36;96130.41;;;5.84;64.04
37892;BME280;45797;47.466;9.486;2023-03-03T19:57:57;96135.06;;;5.77;63.98
37892;BME280;45797;47.466;9.486;2023-03-03T20:19:23;96163.66;;;5.58;64.73
37892;BME280;45797;47.466;9.486;2023-03-03T20:36:18;96164.44;;;5.60;65.01
37892;BME280;45797;47.466;9.486;2023-03-03T21:04:27;96182.97;;;5.34;64.93
37892;BME280;45797;47.466;9.486;2023-03-03T21:09:38;96194.81;;;5.39;65.08
37892;BME280;45797;47.466;9.486;2023-03-03T21:15:02;96193.97;;;5.39;64.97
37892;BME280;45797;47.466;9.486;2023-03-03T21:25:50;96184.09;;;5.47;64.72
37892;BME280;45797;47.466;9.486;2023-03-03T21:31:11;96194.38;;;5.50;64.87
37892;BME280;45797;47.466;9.486;2023-03-03T21:36:23;96199.41;;;5.53;65.05
37892;BME280;45797;47.466;9.486;2023-03-03T21:41:24;96199.47;;;5.52;65.32
37892;BME280;45797;47.466;9.486;2023-03-03T21:46:32;96202.16;;;5.50;64.79
37892;BME280;45797;47.466;9.486;2023-03-03T21:51:41;96202.16;;;5.50;64.96
37892;BME280;45797;47.466;9.486;2023-03-03T21:56:43;96202.91;;;5.52;64.84
37892;BME280;45797;47.466;9.486;2023-03-03T22:01:45;96209.16;;;5.48;65.54
37892;BME280;45797;47.466;9.486;2023-03-03T22:06:45;96204.94;;;5.45;65.18
37892;BME280;45797;47.466;9.486;2023-03-03T22:11:47;96204.03;;;5.47;65.26
37892;BME280;45797;47.466;9.486;2023-03-03T22:16:48;96201.50;;;5.45;64.90
37892;BME280;45797;47.466;9.486;2023-03-03T22:21:50;96207.53;;;5.45;65.71
37892;BME280;45797;47.466;9.486;2023-03-03T22:26:52;96212.03;;;5.42;65.61
37892;BME280;45797;47.466;9.486;2023-03-03T22:31:52;96211.41;;;5.37;65.43
37892;BME280;45797;47.466;9.486;2023-03-03T22:36:55;96213.91;;;5.38;65.51
37892;BME280;45797;47.466;9.486;2023-03-03T22:41:57;96211.47;;;5.35;65.64
37892;BME280;45797;47.466;9.486;2023-03-03T22:46:59;96209.09;;;5.31;65.57
37892;BME280;45797;47.466;9.486;2023-03-03T22:51:59;96216.22;;;5.26;65.39
37892;BME280;45797;47.466;9.486;2023-03-03T22:57:01;96208.66;;;5.21;65.82
37892;BME280;45797;47.466;9.486;2023-03-03T23:02:01;96213.97;;;5.18;66.20
37892;BME280;45797;47.466;9.486;2023-03-03T23:07:04;96211.38;;;5.18;65.79
37892;BME280;45797;47.466;9.486;2023-03-03T23:12:05;96206.47;;;5.12;66.38
37892;BME280;45797;47.466;9.486;2023-03-03T23:17:07;96203.06;;;5.10;66.58
37892;BME280;45797;47.466;9.486;2023-03-03T23:22:07;96199.13;;;5.01;66.43
37892;BME280;45797;47.466;9.486;2023-03-03T23:27:08;96203.69;;;4.96;66.69
37892;BME280;45797;47.466;9.486;2023-03-03T23:32:10;96191.72;;;4.92;66.29
37892;BME280;45797;47.466;9.486;2023-03-03T23:37:35;96203.25;;;4.86;66.75
37892;BME280;45797;47.466;9.486;2023-03-03T23:42:35;96203.09;;;4.90;66.76
37892;BME280;45797;47.466;9.486;2023-03-03T23:47:37;96202.25;;;4.89;66.71
37892;BME280;45797;47.466;9.486;2023-03-03T23:52:38;96207.50;;;4.87;66.40
37892;BME280;45797;47.466;9.486;2023-03-03T23:57:39;96206.81;;;4.84;66.92
